Mekhanik Pogodin — UBFH6 — position and weather

sailwx.info

Track history (hours):
 
Tides and Currents Weather Stations Pressure Air Temp Water Temp Dewpoint Dewpoint Depression Visibility Wind Speed Wind Dir Waves Ship Positions

Mekhanik Pogodin

Last reported at 2016-Jul-16 18:34 UTC. Time now 2016-Jul-25 08:09 UTC.
Position N 44°41' E 035°56'.
Warning: this ship's position is 8 days out of date.

; draft 2.9 m.

Type: Ship (hazmat cat B). MMSI: 273354720.

Date/timePositionNaut miles runAvg speedWind from/ knotsBaromVisibWave heightAir tempDewpointWater temp
2016-Jul-16 18:34N 44°41' E 035°56'10 9.7
2016-Jul-16 17:33N 44°45' E 036°08'10 9.9
2016-Jul-16 16:33N 44°49' E 036°21'9 8.6
2016-Jul-16 15:34N 44°57' E 036°26'9 9.2
2016-Jul-16 14:33N 45°06' E 036°30'8 8.4
2016-Jul-16 13:33N 45°14' E 036°28'7 7.0
2016-Jul-16 12:33N 45°20' E 036°34'6 5.7
2016-Jul-16 11:33N 45°22' E 036°42'0 0.0
2016-Jul-16 10:33N 45°22' E 036°42'0 0.0
2016-Jul-16 09:33N 45°22' E 036°42'0 0.0
2016-Jul-16 08:33N 45°22' E 036°42'0 0.0
2016-Jul-16 07:30N 45°22' E 036°42'0 0.0
2016-Jul-16 06:33N 45°22' E 036°42'1 0.3
2016-Jul-16 04:34N 45°22' E 036°41'7 7.3
2016-Jul-16 03:34N 45°19' E 036°32'4 4.0
2016-Jul-16 02:34N 45°15' E 036°28'8 7.5
2016-Jul-16 01:34N 45°08' E 036°32'3 0.6
2016-Jul-15 21:21N 45°06' E 036°35'0 0.0
2016-Jul-15 20:33N 45°06' E 036°35'0 0.0
2016-Jul-15 19:33N 45°06' E 036°35'0 0.0
2016-Jul-15 18:33N 45°06' E 036°35'0 0.0
2016-Jul-15 17:12N 45°06' E 036°35'0 0.0
2016-Jul-15 16:33N 45°06' E 036°35'0 0.0
2016-Jul-15 13:06N 45°07' E 036°35'3 5.4
2016-Jul-15 12:27N 45°09' E 036°31'7 7.5
2016-Jul-15 11:33N 45°15' E 036°28'6 6.1
2016-Jul-15 10:33N 45°19' E 036°35'6 5.7
2016-Jul-15 09:33N 45°22' E 036°42'0 0.2
2016-Jul-15 08:33N 45°23' E 036°42'0 0.1
2016-Jul-15 07:33N 45°23' E 036°42'0 0.0
2016-Jul-15 06:33N 45°23' E 036°42'0 0.0
2016-Jul-15 05:33N 45°23' E 036°42'0 0.0
2016-Jul-15 04:33N 45°23' E 036°42'0 0.0
2016-Jul-15 03:33N 45°23' E 036°42'0 0.0
2016-Jul-15 02:33N 45°23' E 036°42'0 0.1
2016-Jul-15 01:33N 45°23' E 036°42'0 0.1
2016-Jul-15 00:33N 45°23' E 036°42'0 0.0
2016-Jul-14 23:33N 45°23' E 036°42'0 0.0
2016-Jul-14 22:33N 45°23' E 036°42'0 0.0
2016-Jul-14 21:33N 45°23' E 036°42'0 0.0
2016-Jul-14 20:33N 45°23' E 036°42'0 0.1
2016-Jul-14 19:33N 45°23' E 036°42'0 0.0
2016-Jul-14 18:33N 45°23' E 036°42'0 0.0
2016-Jul-14 17:33N 45°23' E 036°42'0 0.0
2016-Jul-14 16:33N 45°23' E 036°42'0 0.0
2016-Jul-14 15:33N 45°23' E 036°42'0 0.0
2016-Jul-14 14:33N 45°23' E 036°42'0 0.0
2016-Jul-14 13:33N 45°23' E 036°42'0 0.0
2016-Jul-14 12:30N 45°23' E 036°42'0 0.0
2016-Jul-14 11:33N 45°23' E 036°42'0 0.0
2016-Jul-14 10:30N 45°23' E 036°42'0 0.0
2016-Jul-14 09:33N 45°23' E 036°42'0 0.0
2016-Jul-14 08:33N 45°23' E 036°42'0 0.0
2016-Jul-14 07:33N 45°23' E 036°42'0 0.0
2016-Jul-14 06:33N 45°23' E 036°42'0 0.0
2016-Jul-14 05:33N 45°23' E 036°42'0 0.0
2016-Jul-14 04:33N 45°23' E 036°42'0 0.0
2016-Jul-14 03:33N 45°23' E 036°42'0 0.0
2016-Jul-14 02:27N 45°23' E 036°42'0 0.0
2016-Jul-14 01:33N 45°23' E 036°42'0 0.0
2016-Jul-14 00:33N 45°23' E 036°42'0 0.0
2016-Jul-13 23:33N 45°23' E 036°42'0 0.0
2016-Jul-13 22:33N 45°23' E 036°42'0 0.0
2016-Jul-13 21:33N 45°23' E 036°42'0 0.0
2016-Jul-13 20:33N 45°23' E 036°42'0 0.0
2016-Jul-13 19:33N 45°23' E 036°42'0 0.0
2016-Jul-13 18:33N 45°23' E 036°42'0 0.0
2016-Jul-13 17:33N 45°23' E 036°42'0 0.0
2016-Jul-13 16:33N 45°23' E 036°42'0 0.0
2016-Jul-13 15:33N 45°23' E 036°42'0 0.0
2016-Jul-13 14:33N 45°23' E 036°42'0 0.0
2016-Jul-13 13:33N 45°23' E 036°42'0 0.0
2016-Jul-13 12:33N 45°23' E 036°42'0 0.0
2016-Jul-13 11:33N 45°23' E 036°42'0 0.0
2016-Jul-13 10:33N 45°23' E 036°42'0 0.0
2016-Jul-13 09:33N 45°23' E 036°42'0 0.0
2016-Jul-13 08:33N 45°23' E 036°42'0 0.0
2016-Jul-13 07:30N 45°23' E 036°42'0 0.0
2016-Jul-13 06:33N 45°23' E 036°42'0 0.0
2016-Jul-13 05:33N 45°23' E 036°42'0 0.0
2016-Jul-13 04:33N 45°23' E 036°42'0 0.0
2016-Jul-13 03:30N 45°23' E 036°42'0 0.0
2016-Jul-13 02:33N 45°23' E 036°42'0 0.0
2016-Jul-13 01:33N 45°23' E 036°42'0 0.0
2016-Jul-13 00:33N 45°23' E 036°42'0 0.0
2016-Jul-12 23:33N 45°23' E 036°42'0 0.0
2016-Jul-12 22:33N 45°23' E 036°42'0 0.0
2016-Jul-12 21:33N 45°23' E 036°42'0 0.0
2016-Jul-12 20:33N 45°23' E 036°42'0 0.0
2016-Jul-12 19:33N 45°23' E 036°42'0 0.0
2016-Jul-12 18:33N 45°23' E 036°42'0 0.0
2016-Jul-12 17:33N 45°23' E 036°42'0 0.0
2016-Jul-12 16:33N 45°23' E 036°42'0 0.0
2016-Jul-12 15:33N 45°23' E 036°42'0 0.0
2016-Jul-12 14:33N 45°23' E 036°42'0 0.0
2016-Jul-12 13:33N 45°23' E 036°42'0 0.0
2016-Jul-12 12:33N 45°23' E 036°42'0 0.0
2016-Jul-12 11:33N 45°23' E 036°42'0 0.0
2016-Jul-12 10:33N 45°23' E 036°42'0 0.0
2016-Jul-12 09:33N 45°23' E 036°42'0 0.0
2016-Jul-12 08:33N 45°23' E 036°42'0 0.1
2016-Jul-12 07:33N 45°23' E 036°42'0 0.1
2016-Jul-12 06:33N 45°23' E 036°42'0 0.0
2016-Jul-12 05:33N 45°23' E 036°42'0 0.0
2016-Jul-12 04:33N 45°23' E 036°42'0 0.0
2016-Jul-12 03:33N 45°23' E 036°42'0 0.0
2016-Jul-12 02:33N 45°23' E 036°42'0 0.0
2016-Jul-12 01:30N 45°23' E 036°42'0 0.0
2016-Jul-12 00:33N 45°23' E 036°42'0 0.0
2016-Jul-11 23:33N 45°23' E 036°42'0 0.0
2016-Jul-11 22:33N 45°23' E 036°42'0 0.0
2016-Jul-11 21:33N 45°23' E 036°42'6 6.0
2016-Jul-11 20:33N 45°28' E 036°46'2 2.2
2016-Jul-11 19:30N 45°29' E 036°49'0 0.0
2016-Jul-11 14:12N 45°29' E 036°49'0 0.0
2016-Jul-11 13:30N 45°29' E 036°49'0 0.0
2016-Jul-11 12:21N 45°29' E 036°49'0 0.0
2016-Jul-11 09:27N 45°29' E 036°49'0 0.0
2016-Jul-11 08:27N 45°29' E 036°49'0 0.0
2016-Jul-11 07:21N 45°29' E 036°49'0 0.0
2016-Jul-11 04:21N 45°29' E 036°49'0 0.0
2016-Jul-11 03:27N 45°29' E 036°49'0 0.1
2016-Jul-11 02:33N 45°29' E 036°49'0 0.0
2016-Jul-11 00:18N 45°29' E 036°49'0 0.0
2016-Jul-10 23:30N 45°29' E 036°49'0 0.0
2016-Jul-10 22:18N 45°29' E 036°49'0 0.0
2016-Jul-10 21:21N 45°29' E 036°49'0 0.0
2016-Jul-10 20:30N 45°29' E 036°49'0 0.0
2016-Jul-10 19:15N 45°29' E 036°49'0 0.0
2016-Jul-10 18:24N 45°29' E 036°49'0 0.0
2016-Jul-10 12:09N 45°29' E 036°49'0 0.1
2016-Jul-10 11:33N 45°29' E 036°49'0 0.1
2016-Jul-10 10:33N 45°29' E 036°49'0 0.0
2016-Jul-10 09:27N 45°29' E 036°49'0 0.0
2016-Jul-10 08:30N 45°29' E 036°49'0 0.0
2016-Jul-10 07:15N 45°29' E 036°49'0 0.1
2016-Jul-10 06:33N 45°29' E 036°49'0 0.0
2016-Jul-10 05:33N 45°29' E 036°49'0 0.0
2016-Jul-10 04:30N 45°29' E 036°49'0 0.0
2016-Jul-10 03:33N 45°29' E 036°49'0 0.0
2016-Jul-10 02:33N 45°29' E 036°49'0 0.0
2016-Jul-10 01:24N 45°29' E 036°49'0 0.0
2016-Jul-09 21:27N 45°29' E 036°49'0 0.0
2016-Jul-09 17:27N 45°29' E 036°49'0 0.0
2016-Jul-09 16:27N 45°29' E 036°49'0 0.0
2016-Jul-09 15:27N 45°29' E 036°49'0 0.0
2016-Jul-09 14:33N 45°29' E 036°49'0 0.0
2016-Jul-09 13:27N 45°29' E 036°49'0 0.0
2016-Jul-09 11:33N 45°29' E 036°49'0 0.0
2016-Jul-09 10:30N 45°29' E 036°49'0 0.0
2016-Jul-09 09:30N 45°29' E 036°49'0 0.0
2016-Jul-09 08:33N 45°29' E 036°49'0 0.0
2016-Jul-09 04:30N 45°29' E 036°49'0 0.0
2016-Jul-09 03:24N 45°29' E 036°49'0 0.0
2016-Jul-09 02:33N 45°29' E 036°49'0 0.0
2016-Jul-08 21:09N 45°29' E 036°49'97 7.7
2016-Jul-08 08:31N 46°55' E 037°55'8 8.1
2016-Jul-08 07:34N 46°58' E 038°05'8 8.1
2016-Jul-08 06:33N 47°01' E 038°16'  
Track history (hours):
 
Tides and Currents Weather Stations Pressure Air Temp Water Temp Dewpoint Dewpoint Depression Visibility Wind Speed Wind Dir Waves Ship Positions

Mekhanik Pogodin

Last reported at 2016-Jul-16 18:34 UTC. Time now 2016-Jul-25 08:09 UTC.
Position N 44°41' E 035°56'.
Warning: this ship's position is 8 days out of date.

; draft 2.9 m.

Type: Ship (hazmat cat B). MMSI: 273354720.

Date/timePositionNaut miles runAvg speedWind from/ knotsBaromVisibWave heightAir tempDewpointWater temp
2016-Jul-16 18:34N 44°41' E 035°56'10 9.7
2016-Jul-16 17:33N 44°45' E 036°08'10 9.9
2016-Jul-16 16:33N 44°49' E 036°21'9 8.6
2016-Jul-16 15:34N 44°57' E 036°26'9 9.2
2016-Jul-16 14:33N 45°06' E 036°30'8 8.4
2016-Jul-16 13:33N 45°14' E 036°28'7 7.0
2016-Jul-16 12:33N 45°20' E 036°34'6 5.7
2016-Jul-16 11:33N 45°22' E 036°42'0 0.0
2016-Jul-16 10:33N 45°22' E 036°42'0 0.0
2016-Jul-16 09:33N 45°22' E 036°42'0 0.0
2016-Jul-16 08:33N 45°22' E 036°42'0 0.0
2016-Jul-16 07:30N 45°22' E 036°42'0 0.0
2016-Jul-16 06:33N 45°22' E 036°42'1 0.3
2016-Jul-16 04:34N 45°22' E 036°41'7 7.3
2016-Jul-16 03:34N 45°19' E 036°32'4 4.0
2016-Jul-16 02:34N 45°15' E 036°28'8 7.5
2016-Jul-16 01:34N 45°08' E 036°32'3 0.6
2016-Jul-15 21:21N 45°06' E 036°35'0 0.0
2016-Jul-15 20:33N 45°06' E 036°35'0 0.0
2016-Jul-15 19:33N 45°06' E 036°35'0 0.0
2016-Jul-15 18:33N 45°06' E 036°35'0 0.0
2016-Jul-15 17:12N 45°06' E 036°35'0 0.0
2016-Jul-15 16:33N 45°06' E 036°35'0 0.0
2016-Jul-15 13:06N 45°07' E 036°35'3 5.4
2016-Jul-15 12:27N 45°09' E 036°31'7 7.5
2016-Jul-15 11:33N 45°15' E 036°28'6 6.1
2016-Jul-15 10:33N 45°19' E 036°35'6 5.7
2016-Jul-15 09:33N 45°22' E 036°42'0 0.2
2016-Jul-15 08:33N 45°23' E 036°42'0 0.1
2016-Jul-15 07:33N 45°23' E 036°42'0 0.0
2016-Jul-15 06:33N 45°23' E 036°42'0 0.0
2016-Jul-15 05:33N 45°23' E 036°42'0 0.0
2016-Jul-15 04:33N 45°23' E 036°42'0 0.0
2016-Jul-15 03:33N 45°23' E 036°42'0 0.0
2016-Jul-15 02:33N 45°23' E 036°42'0 0.1
2016-Jul-15 01:33N 45°23' E 036°42'0 0.1
2016-Jul-15 00:33N 45°23' E 036°42'0 0.0
2016-Jul-14 23:33N 45°23' E 036°42'0 0.0
2016-Jul-14 22:33N 45°23' E 036°42'0 0.0
2016-Jul-14 21:33N 45°23' E 036°42'0 0.0
2016-Jul-14 20:33N 45°23' E 036°42'0 0.1
2016-Jul-14 19:33N 45°23' E 036°42'0 0.0
2016-Jul-14 18:33N 45°23' E 036°42'0 0.0
2016-Jul-14 17:33N 45°23' E 036°42'0 0.0
2016-Jul-14 16:33N 45°23' E 036°42'0 0.0
2016-Jul-14 15:33N 45°23' E 036°42'0 0.0
2016-Jul-14 14:33N 45°23' E 036°42'0 0.0
2016-Jul-14 13:33N 45°23' E 036°42'0 0.0
2016-Jul-14 12:30N 45°23' E 036°42'0 0.0
2016-Jul-14 11:33N 45°23' E 036°42'0 0.0
2016-Jul-14 10:30N 45°23' E 036°42'0 0.0
2016-Jul-14 09:33N 45°23' E 036°42'0 0.0
2016-Jul-14 08:33N 45°23' E 036°42'0 0.0
2016-Jul-14 07:33N 45°23' E 036°42'0 0.0
2016-Jul-14 06:33N 45°23' E 036°42'0 0.0
2016-Jul-14 05:33N 45°23' E 036°42'0 0.0
2016-Jul-14 04:33N 45°23' E 036°42'0 0.0
2016-Jul-14 03:33N 45°23' E 036°42'0 0.0
2016-Jul-14 02:27N 45°23' E 036°42'0 0.0
2016-Jul-14 01:33N 45°23' E 036°42'0 0.0
2016-Jul-14 00:33N 45°23' E 036°42'0 0.0
2016-Jul-13 23:33N 45°23' E 036°42'0 0.0
2016-Jul-13 22:33N 45°23' E 036°42'0 0.0
2016-Jul-13 21:33N 45°23' E 036°42'0 0.0
2016-Jul-13 20:33N 45°23' E 036°42'0 0.0
2016-Jul-13 19:33N 45°23' E 036°42'0 0.0
2016-Jul-13 18:33N 45°23' E 036°42'0 0.0
2016-Jul-13 17:33N 45°23' E 036°42'0 0.0
2016-Jul-13 16:33N 45°23' E 036°42'0 0.0
2016-Jul-13 15:33N 45°23' E 036°42'0 0.0
2016-Jul-13 14:33N 45°23' E 036°42'0 0.0
2016-Jul-13 13:33N 45°23' E 036°42'0 0.0
2016-Jul-13 12:33N 45°23' E 036°42'0 0.0
2016-Jul-13 11:33N 45°23' E 036°42'0 0.0
2016-Jul-13 10:33N 45°23' E 036°42'0 0.0
2016-Jul-13 09:33N 45°23' E 036°42'0 0.0
2016-Jul-13 08:33N 45°23' E 036°42'0 0.0
2016-Jul-13 07:30N 45°23' E 036°42'0 0.0
2016-Jul-13 06:33N 45°23' E 036°42'0 0.0
2016-Jul-13 05:33N 45°23' E 036°42'0 0.0
2016-Jul-13 04:33N 45°23' E 036°42'0 0.0
2016-Jul-13 03:30N 45°23' E 036°42'0 0.0
2016-Jul-13 02:33N 45°23' E 036°42'0 0.0
2016-Jul-13 01:33N 45°23' E 036°42'0 0.0
2016-Jul-13 00:33N 45°23' E 036°42'0 0.0
2016-Jul-12 23:33N 45°23' E 036°42'0 0.0
2016-Jul-12 22:33N 45°23' E 036°42'0 0.0
2016-Jul-12 21:33N 45°23' E 036°42'0 0.0
2016-Jul-12 20:33N 45°23' E 036°42'0 0.0
2016-Jul-12 19:33N 45°23' E 036°42'0 0.0
2016-Jul-12 18:33N 45°23' E 036°42'0 0.0
2016-Jul-12 17:33N 45°23' E 036°42'0 0.0
2016-Jul-12 16:33N 45°23' E 036°42'0 0.0
2016-Jul-12 15:33N 45°23' E 036°42'0 0.0
2016-Jul-12 14:33N 45°23' E 036°42'0 0.0
2016-Jul-12 13:33N 45°23' E 036°42'0 0.0
2016-Jul-12 12:33N 45°23' E 036°42'0 0.0
2016-Jul-12 11:33N 45°23' E 036°42'0 0.0
2016-Jul-12 10:33N 45°23' E 036°42'0 0.0
2016-Jul-12 09:33N 45°23' E 036°42'0 0.0
2016-Jul-12 08:33N 45°23' E 036°42'0 0.1
2016-Jul-12 07:33N 45°23' E 036°42'0 0.1
2016-Jul-12 06:33N 45°23' E 036°42'0 0.0
2016-Jul-12 05:33N 45°23' E 036°42'0 0.0
2016-Jul-12 04:33N 45°23' E 036°42'0 0.0
2016-Jul-12 03:33N 45°23' E 036°42'0 0.0
2016-Jul-12 02:33N 45°23' E 036°42'0 0.0
2016-Jul-12 01:30N 45°23' E 036°42'0 0.0
2016-Jul-12 00:33N 45°23' E 036°42'0 0.0
2016-Jul-11 23:33N 45°23' E 036°42'0 0.0
2016-Jul-11 22:33N 45°23' E 036°42'0 0.0
2016-Jul-11 21:33N 45°23' E 036°42'6 6.0
2016-Jul-11 20:33N 45°28' E 036°46'2 2.2
2016-Jul-11 19:30N 45°29' E 036°49'0 0.0
2016-Jul-11 14:12N 45°29' E 036°49'0 0.0
2016-Jul-11 13:30N 45°29' E 036°49'0 0.0
2016-Jul-11 12:21N 45°29' E 036°49'0 0.0
2016-Jul-11 09:27N 45°29' E 036°49'0 0.0
2016-Jul-11 08:27N 45°29' E 036°49'0 0.0
2016-Jul-11 07:21N 45°29' E 036°49'0 0.0
2016-Jul-11 04:21N 45°29' E 036°49'0 0.0
2016-Jul-11 03:27N 45°29' E 036°49'0 0.1
2016-Jul-11 02:33N 45°29' E 036°49'0 0.0
2016-Jul-11 00:18N 45°29' E 036°49'0 0.0
2016-Jul-10 23:30N 45°29' E 036°49'0 0.0
2016-Jul-10 22:18N 45°29' E 036°49'0 0.0
2016-Jul-10 21:21N 45°29' E 036°49'0 0.0
2016-Jul-10 20:30N 45°29' E 036°49'0 0.0
2016-Jul-10 19:15N 45°29' E 036°49'0 0.0
2016-Jul-10 18:24N 45°29' E 036°49'0 0.0
2016-Jul-10 12:09N 45°29' E 036°49'0 0.1
2016-Jul-10 11:33N 45°29' E 036°49'0 0.1
2016-Jul-10 10:33N 45°29' E 036°49'0 0.0
2016-Jul-10 09:27N 45°29' E 036°49'0 0.0
2016-Jul-10 08:30N 45°29' E 036°49'0 0.0
2016-Jul-10 07:15N 45°29' E 036°49'0 0.1
2016-Jul-10 06:33N 45°29' E 036°49'0 0.0
2016-Jul-10 05:33N 45°29' E 036°49'0 0.0
2016-Jul-10 04:30N 45°29' E 036°49'0 0.0
2016-Jul-10 03:33N 45°29' E 036°49'0 0.0
2016-Jul-10 02:33N 45°29' E 036°49'0 0.0
2016-Jul-10 01:24N 45°29' E 036°49'0 0.0
2016-Jul-09 21:27N 45°29' E 036°49'0 0.0
2016-Jul-09 17:27N 45°29' E 036°49'0 0.0
2016-Jul-09 16:27N 45°29' E 036°49'0 0.0
2016-Jul-09 15:27N 45°29' E 036°49'0 0.0
2016-Jul-09 14:33N 45°29' E 036°49'0 0.0
2016-Jul-09 13:27N 45°29' E 036°49'0 0.0
2016-Jul-09 11:33N 45°29' E 036°49'0 0.0
2016-Jul-09 10:30N 45°29' E 036°49'0 0.0
2016-Jul-09 09:30N 45°29' E 036°49'0 0.0
2016-Jul-09 08:33N 45°29' E 036°49'0 0.0
2016-Jul-09 04:30N 45°29' E 036°49'0 0.0
2016-Jul-09 03:24N 45°29' E 036°49'0 0.0
2016-Jul-09 02:33N 45°29' E 036°49'0 0.0
2016-Jul-08 21:09N 45°29' E 036°49'97 7.7
2016-Jul-08 08:31N 46°55' E 037°55'8 8.1
2016-Jul-08 07:34N 46°58' E 038°05'8 8.1
2016-Jul-08 06:33N 47°01' E 038°16'  

Dump ship's entire track history